Time;durP1;ratioP1;P1;durP2;ratioP2;P2;SDS_P1;SDS_P2;PMS_P1;PMS_P2;Temp;Humidity;BMP_temperature;BMP_pressure;BME280_temperature;BME280_humidity;BME280_pressure;Samples;Min_cycle;Max_cycle;Signal;HPM_P1;HPM_P2
2022/09/02 00:01:15;;;;;;;0.10;0.10;;;;;;;;;;6233542;22;20088;-94
2022/09/02 00:03:41;;;;;;;0.10;0.10;;;;;;;;;;6233228;22;20019;-95
2022/09/02 00:06:08;;;;;;;0.00;0.00;;;;;;;;;;6259160;22;20164;-94
2022/09/02 00:08:35;;;;;;;0.00;0.00;;;;;;;;;;6234222;22;20512;-93
2022/09/02 00:11:02;;;;;;;0.10;0.10;;;;;;;;;;6233662;22;20094;-94
2022/09/02 00:13:29;;;;;;;0.10;0.10;;;;;;;;;;6232954;22;20020;-96
2022/09/02 00:15:58;;;;;;;0.13;0.13;;;;;;;;;;6234206;22;20024;-94
2022/09/02 00:18:25;;;;;;;0.10;0.10;;;;;;;;;;6210093;22;20024;-94
2022/09/02 00:20:51;;;;;;;0.13;0.13;;;;;;;;;;6233791;22;20000;-96
2022/09/02 00:23:18;;;;;;;0.10;0.10;;;;;;;;;;6234104;22;20121;-93
2022/09/02 00:25:45;;;;;;;0.10;0.10;;;;;;;;;;6258877;22;20019;-95
2022/09/02 00:28:12;;;;;;;0.10;0.10;;;;;;;;;;6234667;22;20050;-95
2022/09/02 00:30:38;;;;;;;0.08;0.08;;;;;;;;;;6232993;22;20020;-96
2022/09/02 00:33:04;;;;;;;0.10;0.10;;;;;;;;;;6235902;22;20016;-95
2022/09/02 00:35:31;;;;;;;0.10;0.10;;;;;;;;;;6234825;22;20027;-91
2022/09/02 00:37:58;;;;;;;0.10;0.10;;;;;;;;;;6234547;22;20023;-92
2022/09/02 00:40:25;;;;;;;0.10;0.10;;;;;;;;;;6235831;22;20055;-95
2022/09/02 00:42:51;;;;;;;0.10;0.10;;;;;;;;;;6235980;22;20050;-96
2022/09/02 00:45:18;;;;;;;0.10;0.10;;;;;;;;;;6235913;22;20071;-95
2022/09/02 00:47:44;;;;;;;0.10;0.10;;;;;;;;;;6236490;22;20051;-96
2022/09/02 00:50:16;;;;;;;0.10;0.10;;;;;;;;;;6236113;22;20070;-94
2022/09/02 00:52:52;;;;;;;0.10;0.10;;;;;;;;;;6237228;22;20039;-94
2022/09/02 00:55:20;;;;;;;0.10;0.10;;;;;;;;;;6236277;22;20024;-95
2022/09/02 00:57:48;;;;;;;0.15;0.15;;;;;;;;;;6235604;22;20024;-96
2022/09/02 01:00:17;;;;;;;0.03;0.03;;;;;;;;;;6234988;22;20031;-94
2022/09/02 01:02:46;;;;;;;0.10;0.10;;;;;;;;;;6235941;22;20485;-94
2022/09/02 01:05:14;;;;;;;0.10;0.10;;;;;;;;;;6258821;22;20023;-96
2022/09/02 01:07:41;;;;;;;0.15;0.15;;;;;;;;;;6234202;22;20024;-94
2022/09/02 01:10:09;;;;;;;0.05;0.05;;;;;;;;;;6236725;22;20004;-95
2022/09/02 01:12:38;;;;;;;0.10;0.10;;;;;;;;;;6259863;22;20023;-96
2022/09/02 01:15:05;;;;;;;0.10;0.10;;;;;;;;;;6235104;22;20019;-93
2022/09/02 01:17:33;;;;;;;0.10;0.10;;;;;;;;;;6233124;22;20022;-93
2022/09/02 01:20:11;;;;;;;0.10;0.10;;;;;;;;;;6235095;22;20030;-94
2022/09/02 01:22:40;;;;;;;0.20;0.20;;;;;;;;;;6209881;22;20057;-95
2022/09/02 01:25:16;;;;;;;0.10;0.10;;;;;;;;;;6235812;22;19996;-94
2022/09/02 01:27:42;;;;;;;0.10;0.10;;;;;;;;;;6233764;22;20007;-93
2022/09/02 01:30:10;;;;;;;0.20;0.20;;;;;;;;;;6234461;22;20030;-94
2022/09/02 01:32:36;;;;;;;0.10;0.10;;;;;;;;;;6232742;22;20050;-92
2022/09/02 01:35:03;;;;;;;0.10;0.10;;;;;;;;;;6235077;22;20011;-94
2022/09/02 01:37:31;;;;;;;0.10;0.10;;;;;;;;;;6235923;22;20027;-93
2022/09/02 01:39:57;;;;;;;0.10;0.10;;;;;;;;;;6235322;22;20047;-95
2022/09/02 01:42:24;;;;;;;0.10;0.10;;;;;;;;;;6235762;22;20031;-94
2022/09/02 01:44:51;;;;;;;0.10;0.10;;;;;;;;;;6236110;22;20023;-96
2022/09/02 01:47:19;;;;;;;0.10;0.10;;;;;;;;;;6234763;22;20016;-94
2022/09/02 01:49:45;;;;;;;0.05;0.05;;;;;;;;;;6236329;22;20081;-94
2022/09/02 01:52:11;;;;;;;0.10;0.10;;;;;;;;;;6212687;22;20047;-94
2022/09/02 01:54:39;;;;;;;0.10;0.10;;;;;;;;;;6237659;22;20020;-95
2022/09/02 01:57:05;;;;;;;0.20;0.20;;;;;;;;;;6211340;22;20008;-96
2022/09/02 01:59:31;;;;;;;0.10;0.10;;;;;;;;;;6237431;22;20046;-94
2022/09/02 02:01:57;;;;;;;0.10;0.10;;;;;;;;;;6236790;22;20023;-94
2022/09/02 02:04:24;;;;;;;0.10;0.10;;;;;;;;;;6233380;22;20058;-92
2022/09/02 02:06:50;;;;;;;0.10;0.10;;;;;;;;;;6233936;22;20027;-94
2022/09/02 02:09:17;;;;;;;0.10;0.10;;;;;;;;;;6234657;22;20023;-94
2022/09/02 02:11:44;;;;;;;0.20;0.20;;;;;;;;;;6233668;22;20020;-94
2022/09/02 02:14:10;;;;;;;0.15;0.15;;;;;;;;;;6232792;22;20030;-93
2022/09/02 02:16:37;;;;;;;0.20;0.20;;;;;;;;;;6234333;22;20019;-93
2022/09/02 02:19:03;;;;;;;0.10;0.10;;;;;;;;;;6234716;22;20055;-93
2022/09/02 02:21:29;;;;;;;0.10;0.10;;;;;;;;;;6235662;22;20024;-93
2022/09/02 02:23:59;;;;;;;0.10;0.10;;;;;;;;;;6237379;22;20023;-93
2022/09/02 02:26:25;;;;;;;0.10;0.10;;;;;;;;;;6234297;22;20403;-94
2022/09/02 02:28:56;;;;;;;0.20;0.20;;;;;;;;;;6236281;22;20019;-95
2022/09/02 02:31:23;;;;;;;0.20;0.20;;;;;;;;;;6260690;22;20030;-93
2022/09/02 02:33:50;;;;;;;0.10;0.10;;;;;;;;;;6259520;22;20022;-93
2022/09/02 02:36:16;;;;;;;0.20;0.20;;;;;;;;;;6236294;22;20030;-94
2022/09/02 02:38:47;;;;;;;0.17;0.17;;;;;;;;;;6237161;22;20034;-94
2022/09/02 02:41:14;;;;;;;0.17;0.17;;;;;;;;;;6236961;22;20031;-95
2022/09/02 02:43:40;;;;;;;0.10;0.10;;;;;;;;;;6235575;22;20063;-93
2022/09/02 02:46:08;;;;;;;0.15;0.15;;;;;;;;;;6262316;22;20031;-94
2022/09/02 02:48:35;;;;;;;0.10;0.10;;;;;;;;;;6237365;22;20049;-94
2022/09/02 02:51:02;;;;;;;0.15;0.15;;;;;;;;;;6235826;22;20013;-93
2022/09/02 02:53:30;;;;;;;0.10;0.10;;;;;;;;;;6236118;22;20035;-94
2022/09/02 02:55:56;;;;;;;0.10;0.10;;;;;;;;;;6235880;22;20118;-94
2022/09/02 02:58:22;;;;;;;0.10;0.10;;;;;;;;;;6234454;22;20396;-94
2022/09/02 03:00:50;;;;;;;0.13;0.13;;;;;;;;;;6236726;22;20045;-95
2022/09/02 03:03:18;;;;;;;0.22;0.22;;;;;;;;;;6235619;22;20472;-94
2022/09/02 03:05:46;;;;;;;0.10;0.10;;;;;;;;;;6236052;22;20044;-94
2022/09/02 03:08:12;;;;;;;0.20;0.20;;;;;;;;;;6236399;22;20039;-94
2022/09/02 03:10:40;;;;;;;0.17;0.17;;;;;;;;;;6236575;22;20024;-94
2022/09/02 03:13:08;;;;;;;0.10;0.10;;;;;;;;;;6235962;22;20020;-94
2022/09/02 03:15:36;;;;;;;0.28;0.28;;;;;;;;;;6235761;22;20020;-93
2022/09/02 03:18:02;;;;;;;0.10;0.10;;;;;;;;;;6211167;22;20580;-93
2022/09/02 03:20:28;;;;;;;0.17;0.17;;;;;;;;;;6262145;22;20350;-94
2022/09/02 03:22:56;;;;;;;0.15;0.15;;;;;;;;;;6235628;22;20058;-95
2022/09/02 03:25:24;;;;;;;0.10;0.10;;;;;;;;;;6259274;22;20069;-92
2022/09/02 03:27:51;;;;;;;0.03;0.03;;;;;;;;;;6238506;22;20026;-93
2022/09/02 03:30:22;;;;;;;0.10;0.10;;;;;;;;;;6238505;22;20020;-94
2022/09/02 03:32:49;;;;;;;0.10;0.10;;;;;;;;;;6238986;22;20027;-95
2022/09/02 03:35:17;;;;;;;0.10;0.10;;;;;;;;;;6239190;22;20010;-94
2022/09/02 03:37:44;;;;;;;0.10;0.10;;;;;;;;;;6237433;22;20008;-95
2022/09/02 03:40:13;;;;;;;0.10;0.10;;;;;;;;;;6241005;22;20067;-95
2022/09/02 03:42:42;;;;;;;0.20;0.20;;;;;;;;;;6242783;22;20041;-94
2022/09/02 03:45:09;;;;;;;0.10;0.10;;;;;;;;;;6239340;22;20050;-95
2022/09/02 03:47:43;;;;;;;0.10;0.10;;;;;;;;;;6242424;22;20024;-95
2022/09/02 03:50:10;;;;;;;0.10;0.10;;;;;;;;;;6241894;22;20023;-94
2022/09/02 03:52:36;;;;;;;0.10;0.10;;;;;;;;;;6240880;22;20023;-95
2022/09/02 03:55:03;;;;;;;0.10;0.10;;;;;;;;;;6240980;22;20392;-95
2022/09/02 03:57:30;;;;;;;0.20;0.20;;;;;;;;;;6239495;22;20103;-95
2022/09/02 03:59:56;;;;;;;0.20;0.20;;;;;;;;;;6240856;22;20023;-95
2022/09/02 04:02:23;;;;;;;0.10;0.10;;;;;;;;;;6240968;22;20094;-95
2022/09/02 04:04:50;;;;;;;0.10;0.10;;;;;;;;;;6240118;22;20024;-93
2022/09/02 04:07:16;;;;;;;0.10;0.10;;;;;;;;;;6241823;22;20004;-94
2022/09/02 04:09:42;;;;;;;0.10;0.10;;;;;;;;;;6240665;22;20007;-96
2022/09/02 04:12:08;;;;;;;0.10;0.10;;;;;;;;;;6242203;22;20047;-94
2022/09/02 04:14:35;;;;;;;0.10;0.10;;;;;;;;;;6238236;22;20012;-94
2022/09/02 04:17:01;;;;;;;0.10;0.10;;;;;;;;;;6213524;22;20020;-95
2022/09/02 04:19:31;;;;;;;0.17;0.17;;;;;;;;;;6241531;22;20027;-95
2022/09/02 04:21:58;;;;;;;0.10;0.10;;;;;;;;;;6238114;22;20000;-95
2022/09/02 04:24:25;;;;;;;0.10;0.10;;;;;;;;;;6240680;22;20290;-95
2022/09/02 04:26:52;;;;;;;0.10;0.10;;;;;;;;;;6239024;22;20051;-92
2022/09/02 04:29:18;;;;;;;0.10;0.10;;;;;;;;;;6237108;22;20014;-96
2022/09/02 04:31:44;;;;;;;0.20;0.20;;;;;;;;;;6237876;22;20024;-96
2022/09/02 04:34:10;;;;;;;0.10;0.10;;;;;;;;;;6238275;22;20099;-95
2022/09/02 04:36:36;;;;;;;0.10;0.10;;;;;;;;;;6237971;22;20020;-94
2022/09/02 04:39:02;;;;;;;0.20;0.20;;;;;;;;;;6237114;22;20027;-94
2022/09/02 04:41:29;;;;;;;0.20;0.20;;;;;;;;;;6237850;22;20026;-95
2022/09/02 04:43:56;;;;;;;0.10;0.10;;;;;;;;;;6238323;22;20077;-95
2022/09/02 04:46:23;;;;;;;0.20;0.20;;;;;;;;;;6236124;22;20031;-92
2022/09/02 04:48:50;;;;;;;0.10;0.10;;;;;;;;;;6237764;22;20000;-95
2022/09/02 04:51:21;;;;;;;0.20;0.20;;;;;;;;;;6237532;22;20019;-95
2022/09/02 04:53:47;;;;;;;0.15;0.15;;;;;;;;;;6237549;22;20020;-94
2022/09/02 04:56:15;;;;;;;0.10;0.10;;;;;;;;;;6260838;22;20030;-93
2022/09/02 04:58:43;;;;;;;0.15;0.15;;;;;;;;;;6235780;22;20019;-94
2022/09/02 05:01:10;;;;;;;0.10;0.10;;;;;;;;;;6237321;22;20019;-95
2022/09/02 05:03:37;;;;;;;0.20;0.20;;;;;;;;;;6236057;22;20003;-95
2022/09/02 05:06:05;;;;;;;0.10;0.10;;;;;;;;;;6235915;22;20051;-95
2022/09/02 05:08:31;;;;;;;0.10;0.10;;;;;;;;;;6235606;22;20019;-92
2022/09/02 05:10:59;;;;;;;0.10;0.10;;;;;;;;;;6236006;22;20012;-94
2022/09/02 05:13:25;;;;;;;0.10;0.10;;;;;;;;;;6239008;22;20019;-95
2022/09/02 05:15:51;;;;;;;0.10;0.10;;;;;;;;;;6240759;22;20038;-95
2022/09/02 05:18:18;;;;;;;0.10;0.10;;;;;;;;;;6240886;22;20024;-94
2022/09/02 05:20:44;;;;;;;0.10;0.10;;;;;;;;;;6239740;22;20031;-93
2022/09/02 05:23:11;;;;;;;0.20;0.20;;;;;;;;;;6241534;22;20043;-95
2022/09/02 05:25:40;;;;;;;0.10;0.10;;;;;;;;;;6241159;22;20031;-96
2022/09/02 05:28:08;;;;;;;0.20;0.20;;;;;;;;;;6265132;22;20090;-96
2022/09/02 05:30:35;;;;;;;0.10;0.10;;;;;;;;;;6238979;22;20015;-95
2022/09/02 05:33:01;;;;;;;0.17;0.17;;;;;;;;;;6240703;22;20003;-95
2022/09/02 05:35:28;;;;;;;0.20;0.20;;;;;;;;;;6238967;22;20015;-94
2022/09/02 05:37:58;;;;;;;0.10;0.10;;;;;;;;;;6265529;22;20045;-93
2022/09/02 05:40:24;;;;;;;0.10;0.10;;;;;;;;;;6237326;22;20015;-95
2022/09/02 05:42:50;;;;;;;0.20;0.20;;;;;;;;;;6238847;22;20055;-96
2022/09/02 05:45:17;;;;;;;0.00;0.00;;;;;;;;;;6240089;22;20004;-95
2022/09/02 05:47:43;;;;;;;0.10;0.10;;;;;;;;;;6212853;22;20054;-94
2022/09/02 05:50:09;;;;;;;0.10;0.10;;;;;;;;;;6237298;22;20079;-94
2022/09/02 05:52:36;;;;;;;0.20;0.20;;;;;;;;;;6234423;22;20521;-94
2022/09/02 05:55:02;;;;;;;0.10;0.10;;;;;;;;;;6210417;22;20019;-94
2022/09/02 05:57:29;;;;;;;0.10;0.10;;;;;;;;;;6236246;22;20028;-95
2022/09/02 05:59:58;;;;;;;0.10;0.10;;;;;;;;;;6212164;22;20019;-94
2022/09/02 06:02:25;;;;;;;0.10;0.10;;;;;;;;;;6235493;22;20015;-94
2022/09/02 06:04:52;;;;;;;0.10;0.10;;;;;;;;;;6234630;22;20024;-94
2022/09/02 06:07:20;;;;;;;0.10;0.10;;;;;;;;;;6235069;22;20045;-94
2022/09/02 06:09:49;;;;;;;0.08;0.08;;;;;;;;;;6237766;22;20028;-94
2022/09/02 06:12:18;;;;;;;0.10;0.10;;;;;;;;;;6213938;22;20027;-96
2022/09/02 06:14:45;;;;;;;0.10;0.10;;;;;;;;;;6237023;22;20024;-95
2022/09/02 06:17:12;;;;;;;0.20;0.20;;;;;;;;;;6213528;22;20020;-95
2022/09/02 06:19:38;;;;;;;0.10;0.10;;;;;;;;;;6235449;22;20023;-94
2022/09/02 06:22:04;;;;;;;0.10;0.10;;;;;;;;;;6237766;22;20020;-94
2022/09/02 06:24:31;;;;;;;0.15;0.15;;;;;;;;;;6235334;22;20019;-96
2022/09/02 06:26:58;;;;;;;0.10;0.10;;;;;;;;;;6232059;22;20038;-94
2022/09/02 06:29:25;;;;;;;0.03;0.03;;;;;;;;;;6232388;22;20003;-95
2022/09/02 06:31:52;;;;;;;0.00;0.00;;;;;;;;;;6231262;22;20085;-95
2022/09/02 06:34:20;;;;;;;0.10;0.10;;;;;;;;;;6230564;22;20023;-96
2022/09/02 06:36:47;;;;;;;0.10;0.10;;;;;;;;;;6225597;22;20445;-95
2022/09/02 06:39:15;;;;;;;0.10;0.10;;;;;;;;;;6225981;22;20586;-94
2022/09/02 06:42:05;;;;;;;0.10;0.10;;;;;;;;;;6224888;22;20020;-93
2022/09/02 06:44:31;;;;;;;0.22;0.22;;;;;;;;;;6253705;22;20019;-95
2022/09/02 06:46:58;;;;;;;0.10;0.10;;;;;;;;;;6226607;22;20047;-92
2022/09/02 06:49:26;;;;;;;0.20;0.20;;;;;;;;;;6224863;22;20119;-92
2022/09/02 06:51:55;;;;;;;0.10;0.10;;;;;;;;;;6224876;22;20453;-92
2022/09/02 06:54:22;;;;;;;0.10;0.10;;;;;;;;;;6224588;22;20027;-94
2022/09/02 06:56:49;;;;;;;0.10;0.10;;;;;;;;;;6224021;22;20287;-94
2022/09/02 06:59:16;;;;;;;0.20;0.20;;;;;;;;;;6225850;22;20098;-93
2022/09/02 07:01:43;;;;;;;0.10;0.10;;;;;;;;;;6226995;22;20043;-93
2022/09/02 07:06:55;;;;;;;0.17;0.17;;;;;;;;;;6251414;22;20098;-94
2022/09/02 07:09:22;;;;;;;0.10;0.10;;;;;;;;;;6226797;22;20011;-95
2022/09/02 07:11:48;;;;;;;0.10;0.10;;;;;;;;;;6228048;22;20781;-94
2022/09/02 07:14:15;;;;;;;0.10;0.10;;;;;;;;;;6226481;22;20027;-93
2022/09/02 07:16:43;;;;;;;0.05;0.05;;;;;;;;;;6226893;22;20027;-95
2022/09/02 07:19:11;;;;;;;0.10;0.10;;;;;;;;;;6228210;22;20050;-95
2022/09/02 07:21:38;;;;;;;0.05;0.05;;;;;;;;;;6252438;22;20027;-94
2022/09/02 07:24:04;;;;;;;0.00;0.00;;;;;;;;;;6222875;22;20081;-92
2022/09/02 07:26:30;;;;;;;0.10;0.10;;;;;;;;;;6223768;22;20437;-92
2022/09/02 07:28:57;;;;;;;0.10;0.10;;;;;;;;;;6225017;22;20015;-91
2022/09/02 07:31:23;;;;;;;0.10;0.10;;;;;;;;;;6223365;22;20021;-91
2022/09/02 07:33:49;;;;;;;0.10;0.10;;;;;;;;;;6225406;22;20051;-93
2022/09/02 07:36:20;;;;;;;0.10;0.10;;;;;;;;;;6225462;22;20023;-92
2022/09/02 07:38:49;;;;;;;0.00;0.00;;;;;;;;;;6225512;22;20090;-92
2022/09/02 07:41:15;;;;;;;0.10;0.10;;;;;;;;;;6224780;22;20077;-94
2022/09/02 07:43:41;;;;;;;0.10;0.10;;;;;;;;;;6226543;22;20019;-93
2022/09/02 07:46:07;;;;;;;0.00;0.00;;;;;;;;;;6225426;22;20023;-93
2022/09/02 07:48:34;;;;;;;0.10;0.10;;;;;;;;;;6225534;22;20482;-93
2022/09/02 07:51:00;;;;;;;0.10;0.10;;;;;;;;;;6226640;22;20021;-93
2022/09/02 07:53:28;;;;;;;0.00;0.00;;;;;;;;;;6226421;22;20018;-93
2022/09/02 07:55:55;;;;;;;0.30;0.30;;;;;;;;;;6225287;22;20026;-92
2022/09/02 07:58:35;;;;;;;0.00;0.00;;;;;;;;;;6225778;22;20050;-93
2022/09/02 08:01:01;;;;;;;0.10;0.10;;;;;;;;;;6226442;22;20018;-95
2022/09/02 08:03:30;;;;;;;0.10;0.10;;;;;;;;;;6224535;22;20020;-94
2022/09/02 08:05:59;;;;;;;0.00;0.00;;;;;;;;;;6224905;22;20023;-93
2022/09/02 08:08:31;;;;;;;0.00;0.00;;;;;;;;;;6225585;22;20023;-94
2022/09/02 08:10:57;;;;;;;0.10;0.10;;;;;;;;;;6225449;22;20011;-93
2022/09/02 08:13:33;;;;;;;0.10;0.10;;;;;;;;;;6225325;22;20023;-94
2022/09/02 08:16:01;;;;;;;0.10;0.10;;;;;;;;;;6225288;22;20015;-95
2022/09/02 08:18:27;;;;;;;0.00;0.00;;;;;;;;;;6225856;22;20055;-96
2022/09/02 08:20:54;;;;;;;0.05;0.05;;;;;;;;;;6226512;22;20030;-93
2022/09/02 08:23:20;;;;;;;0.00;0.00;;;;;;;;;;6225673;22;20027;-91
2022/09/02 08:25:50;;;;;;;0.10;0.10;;;;;;;;;;6224831;22;20016;-90
2022/09/02 08:28:16;;;;;;;0.00;0.00;;;;;;;;;;6225446;22;20016;-89
2022/09/02 08:30:43;;;;;;;0.08;0.08;;;;;;;;;;6250782;22;20023;-90
2022/09/02 08:33:09;;;;;;;0.10;0.10;;;;;;;;;;6250511;22;20038;-93
2022/09/02 08:35:35;;;;;;;0.10;0.10;;;;;;;;;;6225753;22;20090;-94
2022/09/02 08:38:01;;;;;;;0.10;0.10;;;;;;;;;;6226206;22;20449;-94
2022/09/02 08:40:33;;;;;;;0.10;0.10;;;;;;;;;;6225935;22;20054;-94
2022/09/02 08:45:53;;;;;;;0.10;0.10;;;;;;;;;;6250254;22;20389;-93
2022/09/02 08:48:38;;;;;;;0.10;0.10;;;;;;;;;;6225497;22;20020;-96
2022/09/02 08:51:10;;;;;;;0.10;0.10;;;;;;;;;;6225550;22;20588;-96
2022/09/02 08:56:37;;;;;;;0.00;0.00;;;;;;;;;;6251874;22;20027;-94
2022/09/02 08:59:11;;;;;;;0.00;0.00;;;;;;;;;;6227322;22;20019;-96
2022/09/02 09:01:50;;;;;;;0.10;0.10;;;;;;;;;;6226490;22;20350;-95
2022/09/02 09:07:07;;;;;;;0.10;0.10;;;;;;;;;;6252755;22;20020;-95
2022/09/02 09:09:42;;;;;;;0.20;0.20;;;;;;;;;;6227289;22;20427;-94
2022/09/02 09:12:17;;;;;;;0.00;0.00;;;;;;;;;;6226558;22;20019;-95
2022/09/02 09:14:47;;;;;;;0.10;0.10;;;;;;;;;;6227895;22;20052;-95
2022/09/02 09:17:19;;;;;;;0.00;0.00;;;;;;;;;;6226751;22;20484;-96
2022/09/02 09:19:48;;;;;;;0.00;0.00;;;;;;;;;;6226420;22;20039;-95
2022/09/02 09:22:17;;;;;;;0.10;0.10;;;;;;;;;;6225047;22;20015;-95
2022/09/02 09:24:44;;;;;;;0.00;0.00;;;;;;;;;;6226398;22;20015;-95
2022/09/02 09:27:18;;;;;;;0.00;0.00;;;;;;;;;;6225024;22;20038;-95
2022/09/02 09:29:44;;;;;;;0.08;0.08;;;;;;;;;;6225621;22;20023;-96
2022/09/02 09:32:20;;;;;;;0.10;0.10;;;;;;;;;;6226310;22;20012;-94
2022/09/02 09:34:52;;;;;;;0.00;0.00;;;;;;;;;;6226628;22;20020;-96
2022/09/02 09:37:33;;;;;;;0.10;0.10;;;;;;;;;;6225450;22;20087;-95
2022/09/02 09:40:00;;;;;;;0.00;0.00;;;;;;;;;;6227069;22;20075;-96
2022/09/02 09:42:36;;;;;;;0.10;0.10;;;;;;;;;;6227641;22;20023;-96
2022/09/02 09:45:20;;;;;;;0.00;0.00;;;;;;;;;;6225684;22;20015;-94
2022/09/02 09:48:06;;;;;;;0.00;0.00;;;;;;;;;;6224481;22;20025;-94
2022/09/02 09:50:33;;;;;;;0.10;0.10;;;;;;;;;;6229040;22;20022;-96
2022/09/02 09:53:19;;;;;;;0.10;0.10;;;;;;;;;;6232016;22;20506;-96
2022/09/02 09:56:00;;;;;;;0.00;0.00;;;;;;;;;;6230043;22;20019;-96
2022/09/02 09:58:56;;;;;;;0.00;0.00;;;;;;;;;;6227945;22;20145;-94
2022/09/02 10:01:27;;;;;;;0.10;0.10;;;;;;;;;;6197877;22;20019;-93
2022/09/02 10:04:32;;;;;;;0.10;0.10;;;;;;;;;;6224900;22;20027;-95
2022/09/02 10:06:58;;;;;;;0.00;0.00;;;;;;;;;;6133268;23;20478;-93
2022/09/02 10:09:31;;;;;;;0.05;0.05;;;;;;;;;;6133451;23;20368;-93
2022/09/02 10:12:04;;;;;;;0.00;0.00;;;;;;;;;;6181370;22;20372;-92
2022/09/02 10:14:34;;;;;;;0.00;0.00;;;;;;;;;;6224844;22;20020;-93
2022/09/02 10:17:09;;;;;;;0.00;0.00;;;;;;;;;;6224835;22;20445;-92
2022/09/02 10:19:43;;;;;;;0.00;0.00;;;;;;;;;;6224670;22;20027;-95
2022/09/02 10:22:09;;;;;;;0.10;0.10;;;;;;;;;;6224860;22;20020;-91
2022/09/02 10:25:17;;;;;;;0.10;0.10;;;;;;;;;;6223937;22;20042;-94
2022/09/02 10:28:03;;;;;;;0.00;0.00;;;;;;;;;;6224960;22;20039;-93
2022/09/02 10:30:32;;;;;;;0.00;0.00;;;;;;;;;;6224301;22;20045;-92
2022/09/02 10:33:01;;;;;;;0.10;0.10;;;;;;;;;;6223701;22;20073;-94
2022/09/02 10:35:38;;;;;;;0.10;0.10;;;;;;;;;;6223585;22;20022;-93
2022/09/02 10:38:19;;;;;;;0.15;0.15;;;;;;;;;;6224801;22;20015;-92
2022/09/02 10:41:05;;;;;;;0.10;0.10;;;;;;;;;;6225232;22;20023;-92
2022/09/02 10:43:31;;;;;;;0.10;0.10;;;;;;;;;;6225173;22;20102;-95
2022/09/02 10:45:59;;;;;;;0.10;0.10;;;;;;;;;;6224373;22;20027;-93
2022/09/02 10:48:31;;;;;;;0.10;0.10;;;;;;;;;;6224801;22;20066;-92
2022/09/02 10:50:57;;;;;;;0.10;0.10;;;;;;;;;;6224303;22;20043;-94
2022/09/02 10:53:36;;;;;;;0.10;0.10;;;;;;;;;;6224741;22;20067;-94
2022/09/02 10:56:07;;;;;;;0.00;0.00;;;;;;;;;;6223412;22;20015;-91
2022/09/02 10:58:40;;;;;;;0.10;0.10;;;;;;;;;;6224483;22;20099;-92
2022/09/02 11:01:07;;;;;;;0.00;0.00;;;;;;;;;;6224796;22;20019;-92
2022/09/02 11:03:38;;;;;;;0.10;0.10;;;;;;;;;;6249609;22;20019;-93
2022/09/02 11:06:11;;;;;;;0.03;0.03;;;;;;;;;;6223746;22;20432;-94
2022/09/02 11:09:04;;;;;;;0.17;0.17;;;;;;;;;;6224283;22;20098;-94
2022/09/02 11:11:41;;;;;;;0.00;0.00;;;;;;;;;;6167575;22;20107;-93
2022/09/02 11:17:34;;;;;;;0.00;0.00;;;;;;;;;;6248523;22;20024;-96
2022/09/02 11:20:00;;;;;;;0.00;0.00;;;;;;;;;;6224189;22;20099;-95
2022/09/02 11:22:28;;;;;;;0.40;0.40;;;;;;;;;;6225993;22;20055;-96
2022/09/02 11:25:17;;;;;;;0.00;0.00;;;;;;;;;;6228559;22;20047;-96
2022/09/02 11:27:48;;;;;;;0.00;0.00;;;;;;;;;;6224374;22;20008;-93
2022/09/02 11:30:26;;;;;;;0.10;0.10;;;;;;;;;;6224517;22;20016;-94
2022/09/02 11:32:57;;;;;;;0.03;0.03;;;;;;;;;;6224136;22;20333;-89
2022/09/02 11:35:27;;;;;;;0.03;0.03;;;;;;;;;;6223333;22;20094;-90
2022/09/02 11:38:00;;;;;;;0.00;0.00;;;;;;;;;;6223865;22;20357;-89
2022/09/02 11:40:28;;;;;;;0.00;0.00;;;;;;;;;;6223860;22;20022;-88
2022/09/02 11:42:57;;;;;;;0.03;0.03;;;;;;;;;;6223113;22;20507;-87
2022/09/02 11:45:33;;;;;;;0.10;0.10;;;;;;;;;;6250435;22;20476;-94
2022/09/02 11:48:06;;;;;;;0.03;0.03;;;;;;;;;;6226215;22;20020;-96
2022/09/02 11:50:59;;;;;;;0.08;0.08;;;;;;;;;;6226685;22;20020;-95
2022/09/02 11:53:35;;;;;;;0.00;0.00;;;;;;;;;;6227185;22;20016;-93
2022/09/02 11:56:17;;;;;;;0.10;0.10;;;;;;;;;;6225370;22;20019;-91
2022/09/02 11:58:45;;;;;;;0.00;0.00;;;;;;;;;;6225578;22;20020;-93
2022/09/02 12:01:20;;;;;;;0.10;0.10;;;;;;;;;;6228139;22;20012;-96
2022/09/02 12:03:49;;;;;;;0.00;0.00;;;;;;;;;;6227507;22;20023;-94
2022/09/02 12:06:21;;;;;;;0.05;0.05;;;;;;;;;;6225664;22;20020;-92
2022/09/02 12:08:55;;;;;;;0.00;0.00;;;;;;;;;;6225890;22;20050;-92
2022/09/02 12:11:44;;;;;;;0.00;0.00;;;;;;;;;;6225875;22;20011;-94
2022/09/02 12:14:25;;;;;;;0.10;0.10;;;;;;;;;;6226179;22;20022;-94
2022/09/02 12:17:03;;;;;;;0.00;0.00;;;;;;;;;;6225406;22;20369;-94
2022/09/02 12:19:39;;;;;;;0.00;0.00;;;;;;;;;;6225415;22;20011;-95
2022/09/02 12:22:14;;;;;;;0.10;0.10;;;;;;;;;;6226157;22;20449;-93
2022/09/02 12:24:51;;;;;;;0.00;0.00;;;;;;;;;;6225399;22;20024;-95
2022/09/02 12:27:35;;;;;;;0.10;0.10;;;;;;;;;;6224590;22;20011;-93
2022/09/02 12:30:03;;;;;;;0.00;0.00;;;;;;;;;;6226762;22;20066;-94
2022/09/02 12:32:49;;;;;;;0.00;0.00;;;;;;;;;;6228133;22;20254;-95
2022/09/02 12:35:31;;;;;;;0.00;0.00;;;;;;;;;;6201195;22;20020;-94
2022/09/02 12:38:17;;;;;;;0.00;0.00;;;;;;;;;;6227448;22;20019;-94
2022/09/02 12:41:03;;;;;;;0.00;0.00;;;;;;;;;;6210388;22;20020;-94
2022/09/02 12:43:49;;;;;;;0.00;0.00;;;;;;;;;;6226979;22;20019;-95
2022/09/02 12:46:37;;;;;;;0.08;0.08;;;;;;;;;;6226374;22;20077;-95
2022/09/02 12:49:04;;;;;;;0.10;0.10;;;;;;;;;;6227890;22;20687;-94
2022/09/02 12:51:51;;;;;;;0.03;0.03;;;;;;;;;;6226416;22;20095;-96
2022/09/02 12:54:17;;;;;;;0.00;0.00;;;;;;;;;;6225990;22;20488;-95
2022/09/02 12:56:50;;;;;;;0.00;0.00;;;;;;;;;;6224557;22;20016;-94
2022/09/02 12:59:26;;;;;;;0.10;0.10;;;;;;;;;;6227232;22;20020;-94
2022/09/02 13:02:00;;;;;;;0.00;0.00;;;;;;;;;;6252857;22;20015;-95
2022/09/02 13:04:29;;;;;;;0.00;0.00;;;;;;;;;;6226490;22;20020;-95
2022/09/02 13:06:57;;;;;;;0.10;0.10;;;;;;;;;;6225155;22;20580;-96
2022/09/02 13:09:35;;;;;;;0.00;0.00;;;;;;;;;;6226081;22;20073;-96
2022/09/02 13:12:20;;;;;;;0.00;0.00;;;;;;;;;;6226544;22;20047;-96
2022/09/02 13:14:46;;;;;;;;;;;;;;;;;;6251692;22;20022;-93
2022/09/02 13:29:59;;;;;;;0.00;0.00;;;;;;;;;;6288479;22;20027;-95
2022/09/02 13:32:26;;;;;;;0.00;0.00;;;;;;;;;;6224854;22;20436;-96
2022/09/02 13:38:48;;;;;;;0.10;0.10;;;;;;;;;;6287056;22;20023;-91
2022/09/02 13:45:14;;;;;;;0.03;0.03;;;;;;;;;;6163516;23;20022;-89
2022/09/02 14:11:25;;;;;;;0.03;0.03;;;;;;;;;;6136745;23;20017;-94
2022/09/02 14:13:55;;;;;;;0.00;0.00;;;;;;;;;;6153959;22;20086;-94
2022/09/02 14:33:55;;;;;;;0.00;0.00;;;;;;;;;;6286773;22;20048;-95
2022/09/02 14:37:19;;;;;;;;;;;;;;;;;;;;;
2022/09/02 14:43:20;;;;;;;0.10;0.10;;;;;;;;;;6238880;22;20045;-92
2022/09/02 14:45:48;;;;;;;0.00;0.00;;;;;;;;;;6223855;22;20111;-93
2022/09/02 14:48:25;;;;;;;0.00;0.00;;;;;;;;;;6223692;22;20018;-93
2022/09/02 14:51:02;;;;;;;0.10;0.10;;;;;;;;;;6223462;22;20023;-92
2022/09/02 14:53:28;;;;;;;0.00;0.00;;;;;;;;;;6223667;22;20031;-93
2022/09/02 14:55:55;;;;;;;0.10;0.10;;;;;;;;;;6223957;22;20022;-93
2022/09/02 14:58:22;;;;;;;0.00;0.00;;;;;;;;;;6224114;22;20098;-94
2022/09/02 15:00:54;;;;;;;0.03;0.03;;;;;;;;;;6223122;22;20089;-94
2022/09/02 15:03:20;;;;;;;0.00;0.00;;;;;;;;;;6224178;22;20019;-92
2022/09/02 15:05:46;;;;;;;0.00;0.00;;;;;;;;;;6223713;22;20146;-91
2022/09/02 15:08:13;;;;;;;0.05;0.05;;;;;;;;;;6249120;22;20016;-93
2022/09/02 15:10:39;;;;;;;0.00;0.00;;;;;;;;;;6223488;22;20016;-91
2022/09/02 15:13:07;;;;;;;0.03;0.03;;;;;;;;;;6223771;22;20011;-90
2022/09/02 15:15:33;;;;;;;0.00;0.00;;;;;;;;;;6224268;22;20503;-91
2022/09/02 15:18:01;;;;;;;0.00;0.00;;;;;;;;;;6224660;22;20531;-91
2022/09/02 15:20:27;;;;;;;0.00;0.00;;;;;;;;;;6226075;22;20043;-91
2022/09/02 15:22:53;;;;;;;0.00;0.00;;;;;;;;;;6226346;22;20015;-90
2022/09/02 15:25:20;;;;;;;0.10;0.10;;;;;;;;;;6251370;22;20026;-91
2022/09/02 15:27:46;;;;;;;0.00;0.00;;;;;;;;;;6226388;22;20141;-90
2022/09/02 15:30:12;;;;;;;0.00;0.00;;;;;;;;;;6225874;22;20325;-92
2022/09/02 15:32:38;;;;;;;0.00;0.00;;;;;;;;;;6223936;22;20098;-91
2022/09/02 15:35:05;;;;;;;0.10;0.10;;;;;;;;;;6223964;22;20020;-91
2022/09/02 15:37:36;;;;;;;0.00;0.00;;;;;;;;;;6224378;22;20023;-89
2022/09/02 15:40:02;;;;;;;0.00;0.00;;;;;;;;;;6224825;22;20020;-88
2022/09/02 15:42:28;;;;;;;0.00;0.00;;;;;;;;;;6226390;22;20015;-91
2022/09/02 15:44:54;;;;;;;0.00;0.00;;;;;;;;;;6251492;22;20550;-91
2022/09/02 15:47:20;;;;;;;0.00;0.00;;;;;;;;;;6226820;22;20078;-91
2022/09/02 15:49:46;;;;;;;0.00;0.00;;;;;;;;;;6250907;22;20016;-91
2022/09/02 15:52:12;;;;;;;0.05;0.05;;;;;;;;;;6226031;22;20125;-89
2022/09/02 15:54:38;;;;;;;0.00;0.00;;;;;;;;;;6226370;22;20020;-90
2022/09/02 15:57:13;;;;;;;0.00;0.00;;;;;;;;;;6225844;22;20121;-92
2022/09/02 15:59:40;;;;;;;0.10;0.10;;;;;;;;;;6225203;22;20019;-90
2022/09/02 16:02:06;;;;;;;0.10;0.10;;;;;;;;;;6226516;22;20016;-92
2022/09/02 16:04:32;;;;;;;0.00;0.00;;;;;;;;;;6225801;22;20015;-91
2022/09/02 16:06:59;;;;;;;0.05;0.05;;;;;;;;;;6251470;22;20015;-91
2022/09/02 16:09:26;;;;;;;0.00;0.00;;;;;;;;;;6224836;22;20098;-93
2022/09/02 16:11:53;;;;;;;0.05;0.05;;;;;;;;;;6225311;22;20023;-91
2022/09/02 16:14:19;;;;;;;0.00;0.00;;;;;;;;;;6225839;22;20015;-89
2022/09/02 16:16:45;;;;;;;0.00;0.00;;;;;;;;;;6226150;22;20150;-91
2022/09/02 16:19:12;;;;;;;0.00;0.00;;;;;;;;;;6226116;22;20011;-90